Dades meteomassalio
Diari Summary for Febrer 6, 2018 Units:  Both    English   Metric
« Previous Day
Next Day »
Diari Semanal Mensual Anual Personalitzat
  Maxima: Minima: Mijana:
Temperatura: TemperatureC °F /  -17.8 °C 1.1 °F /  -17.2 °C 2.4 °F /  -16.4 °C
Rosada: DewpointC °F /  -17.8 °C -2.1 °F /  -18.9 °C 0.9 °F /  -17.3 °C
Humitat: Humidity % 76 % 90 %
Velocitat del vent: WindSpeedKMH mph /  0 km/h - 16.1 mph /  25.9 km/h
Racha vent: WindSpeedGustKMH mph /  0 km/h - -
Vent:- - NW
Pressio: PressurehPa in /  0 hPa 1010.4 in /  34212.1 hPa -
Pluja: 11.4 in /  289.56 mm    
Historical Graphs
 
 
Tabular Data for Febrer 6, 2018
Time Temperature Dew Point Pressure Wind Wind Speed Wind Gust Humidity Rainfall Rate (Hourly) solar Conditions
TemperatureC °F /  -17.8 °C DewpointC °F /  -17.8 °C PressurehPa in /  0 hPa Calm     Humidity % HourlyPrecipMM in /  0 mm SolarRadiationWatts/m^2 W/m2 Conditions
00:01 3.9 °F /  -15.6 °C 2.8 °F /  -16.2 °C 1011.7 in /  34256.2 hPa NW 16.7 mph /  26.9 km/h 16.7 mph /  26.9 km/h 93 % 0.5 in /  12.7 mm 0.0 W/m2 RA
00:06 3.9 °F /  -15.6 °C 2.8 °F /  -16.2 °C 1011.7 in /  34256.2 hPa WNW 13.0 mph /  20.9 km/h 13.0 mph /  20.9 km/h 93 % 0.5 in /  12.7 mm 0.0 W/m2 CLR
00:11 3.9 °F /  -15.6 °C 2.8 °F /  -16.2 °C 1011.7 in /  34256.2 hPa NW 9.3 mph /  15 km/h 9.3 mph /  15 km/h 93 % 0.5 in /  12.7 mm 0.0 W/m2 RA
00:16 3.9 °F /  -15.6 °C 2.8 °F /  -16.2 °C 1011.7 in /  34256.2 hPa WNW 14.8 mph /  23.8 km/h 14.8 mph /  23.8 km/h 93 % 0.5 in /  12.7 mm 0.0 W/m2
00:21 3.9 °F /  -15.6 °C 2.8 °F /  -16.2 °C 1011.7 in /  34256.2 hPa NW 9.3 mph /  15 km/h 9.3 mph /  15 km/h 93 % 0.5 in /  12.7 mm 0.0 W/m2 CLR
00:26 3.9 °F /  -15.6 °C 2.8 °F /  -16.2 °C 1011.7 in /  34256.2 hPa NW 13.0 mph /  20.9 km/h 13.0 mph /  20.9 km/h 93 % 0.5 in /  12.7 mm 0.0 W/m2 CLR
00:31 3.9 °F /  -15.6 °C 2.8 °F /  -16.2 °C 1011.7 in /  34256.2 hPa Calm     93 % 0.5 in /  12.7 mm 0.0 W/m2 CLR
00:36 3.9 °F /  -15.6 °C 2.8 °F /  -16.2 °C 1011.7 in /  34256.2 hPa NW 3.7 mph /  6 km/h 3.7 mph /  6 km/h 93 % 0.5 in /  12.7 mm 0.0 W/m2 RA
00:41 3.9 °F /  -15.6 °C 2.8 °F /  -16.2 °C 1011.7 in /  34256.2 hPa NNW 11.1 mph /  17.9 km/h 11.1 mph /  17.9 km/h 93 % 0.5 in /  12.7 mm 0.0 W/m2 CLR
00:46 3.9 °F /  -15.6 °C 2.8 °F /  -16.2 °C 1011.7 in /  34256.2 hPa NNW 13.0 mph /  20.9 km/h 13.0 mph /  20.9 km/h 93 % 0.5 in /  12.7 mm 0.0 W/m2 CLR
00:51 3.9 °F /  -15.6 °C 2.8 °F /  -16.2 °C 1011.7 in /  34256.2 hPa NNW 11.3 mph /  18.2 km/h 11.3 mph /  18.2 km/h 93 % 0.5 in /  12.7 mm 0.0 W/m2 RA
00:56 3.9 °F /  -15.6 °C 2.8 °F /  -16.2 °C 1011.7 in /  34256.2 hPa NNW 1.9 mph /  3.1 km/h   93 % 0.5 in /  12.7 mm 0.0 W/m2 CLR
01:01 3.9 °F /  -15.6 °C 2.8 °F /  -16.2 °C 1011.7 in /  34256.2 hPa NNW 5.6 mph /  9 km/h 5.6 mph /  9 km/h 93 % 0.8 in /  20.32 mm 0.0 W/m2 RA
01:06 3.9 °F /  -15.6 °C 2.8 °F /  -16.2 °C 1011.7 in /  34256.2 hPa NNW 11.1 mph /  17.9 km/h 11.1 mph /  17.9 km/h 93 % 0.8 in /  20.32 mm 0.0 W/m2
01:11 3.9 °F /  -15.6 °C 2.8 °F /  -16.2 °C 1011.7 in /  34256.2 hPa North 9.3 mph /  15 km/h 9.3 mph /  15 km/h 93 % 0.5 in /  12.7 mm 0.0 W/m2 CLR
01:16 3.9 °F /  -15.6 °C 2.8 °F /  -16.2 °C 1011.7 in /  34256.2 hPa Calm     93 % 0.8 in /  20.32 mm 0.0 W/m2 RA
01:21 3.9 °F /  -15.6 °C 2.8 °F /  -16.2 °C 1011.4 in /  34246 hPa Calm     93 % 0.8 in /  20.32 mm 0.0 W/m2 CLR
01:26 3.9 °F /  -15.6 °C 2.8 °F /  -16.2 °C 1011.4 in /  34246 hPa Calm     93 % 0.8 in /  20.32 mm 0.0 W/m2 CLR
01:31 3.9 °F /  -15.6 °C 2.8 °F /  -16.2 °C 1011.4 in /  34246 hPa Calm     93 % 1.0 in /  25.4 mm 0.0 W/m2 RA
01:36 3.9 °F /  -15.6 °C 2.8 °F /  -16.2 °C 1011.4 in /  34246 hPa Calm     93 % 0.8 in /  20.32 mm 0.0 W/m2 CLR
01:41 3.9 °F /  -15.6 °C 2.8 °F /  -16.2 °C 1011.4 in /  34246 hPa Calm     93 % 1.0 in /  25.4 mm 0.0 W/m2 RA
01:46 3.9 °F /  -15.6 °C 2.8 °F /  -16.2 °C 1011.4 in /  34246 hPa Calm     93 % 1.0 in /  25.4 mm 0.0 W/m2
01:51 3.9 °F /  -15.6 °C 2.8 °F /  -16.2 °C 1011.4 in /  34246 hPa Calm     93 % 1.0 in /  25.4 mm 0.0 W/m2 RA
01:56 3.9 °F /  -15.6 °C 2.8 °F /  -16.2 °C 1011.1 in /  34235.8 hPa Calm     93 % 1.3 in /  33.02 mm 0.0 W/m2 RA
02:01 3.9 °F /  -15.6 °C 2.8 °F /  -16.2 °C 1011.1 in /  34235.8 hPa NNW 14.8 mph /  23.8 km/h 14.8 mph /  23.8 km/h 93 % 1.0 in /  25.4 mm 0.0 W/m2
02:06 3.9 °F /  -15.6 °C 2.8 °F /  -16.2 °C 1011.1 in /  34235.8 hPa North 14.8 mph /  23.8 km/h 14.8 mph /  23.8 km/h 93 % 1.0 in /  25.4 mm 0.0 W/m2 CLR
02:11 3.9 °F /  -15.6 °C 2.8 °F /  -16.2 °C 1011.1 in /  34235.8 hPa NW 9.3 mph /  15 km/h 9.3 mph /  15 km/h 93 % 1.3 in /  33.02 mm 0.0 W/m2 RA
02:16 3.9 °F /  -15.6 °C 2.8 °F /  -16.2 °C 1011.1 in /  34235.8 hPa NNW 11.1 mph /  17.9 km/h 11.1 mph /  17.9 km/h 93 % 1.0 in /  25.4 mm 0.0 W/m2 CLR
02:21 3.9 °F /  -15.6 °C 2.8 °F /  -16.2 °C 1011.1 in /  34235.8 hPa Calm     93 % 1.0 in /  25.4 mm 0.0 W/m2 CLR
02:26 3.9 °F /  -15.6 °C 2.8 °F /  -16.2 °C 1011.1 in /  34235.8 hPa NW 14.8 mph /  23.8 km/h 14.8 mph /  23.8 km/h 93 % 1.0 in /  25.4 mm 0.0 W/m2 CLR
02:31 3.9 °F /  -15.6 °C 2.8 °F /  -16.2 °C 1011.1 in /  34235.8 hPa NNW 9.3 mph /  15 km/h 9.3 mph /  15 km/h 93 % 0.8 in /  20.32 mm 0.0 W/m2 CLR
02:36 3.9 °F /  -15.6 °C 2.8 °F /  -16.2 °C 1011.1 in /  34235.8 hPa NNW 11.1 mph /  17.9 km/h 11.1 mph /  17.9 km/h 93 % 1.0 in /  25.4 mm 0.0 W/m2 RA
02:41 3.9 °F /  -15.6 °C 2.8 °F /  -16.2 °C 1011.1 in /  34235.8 hPa NNW 11.3 mph /  18.2 km/h 11.3 mph /  18.2 km/h 93 % 0.8 in /  20.32 mm 0.0 W/m2 CLR
02:46 3.9 °F /  -15.6 °C 2.8 °F /  -16.2 °C 1011.1 in /  34235.8 hPa NNW 13.0 mph /  20.9 km/h   93 % 1.0 in /  25.4 mm 0.0 W/m2 RA
02:51 3.9 °F /  -15.6 °C 2.8 °F /  -16.2 °C 1011.1 in /  34235.8 hPa Calm     93 % 0.8 in /  20.32 mm 0.0 W/m2 CLR
02:56 3.9 °F /  -15.6 °C 2.8 °F /  -16.2 °C 1011.1 in /  34235.8 hPa NNW 12.9 mph /  20.8 km/h 12.9 mph /  20.8 km/h 93 % 0.8 in /  20.32 mm 0.0 W/m2 RA
03:01 3.9 °F /  -15.6 °C 2.8 °F /  -16.2 °C 1011.1 in /  34235.8 hPa NNW 5.6 mph /  9 km/h 5.6 mph /  9 km/h 93 % 0.8 in /  20.32 mm 0.0 W/m2
03:06 3.9 °F /  -15.6 °C 2.8 °F /  -16.2 °C 1010.7 in /  34222.3 hPa NNW 14.8 mph /  23.8 km/h 14.8 mph /  23.8 km/h 93 % 1.0 in /  25.4 mm 0.0 W/m2 RA
03:11 3.9 °F /  -15.6 °C 2.8 °F /  -16.2 °C 1010.7 in /  34222.3 hPa NNW 11.1 mph /  17.9 km/h 11.1 mph /  17.9 km/h 93 % 1.0 in /  25.4 mm 0.0 W/m2 RA
03:16 3.9 °F /  -15.6 °C 2.8 °F /  -16.2 °C 1010.7 in /  34222.3 hPa NNW 14.8 mph /  23.8 km/h 14.8 mph /  23.8 km/h 93 % 1.0 in /  25.4 mm 0.0 W/m2
03:21 3.9 °F /  -15.6 °C 2.8 °F /  -16.2 °C 1010.7 in /  34222.3 hPa NNW 11.1 mph /  17.9 km/h 11.1 mph /  17.9 km/h 93 % 1.0 in /  25.4 mm 0.0 W/m2 CLR
03:26 3.9 °F /  -15.6 °C 3.0 °F /  -16.1 °C 1010.7 in /  34222.3 hPa NW 9.3 mph /  15 km/h 9.3 mph /  15 km/h 94 % 1.3 in /  33.02 mm 0.0 W/m2 RA
03:31 3.9 °F /  -15.6 °C 3.0 °F /  -16.1 °C 1010.7 in /  34222.3 hPa NNW 9.3 mph /  15 km/h   94 % 1.3 in /  33.02 mm 0.0 W/m2 CLR
03:36 3.9 °F /  -15.6 °C 3.0 °F /  -16.1 °C 1010.7 in /  34222.3 hPa NNW 14.8 mph /  23.8 km/h   94 % 1.0 in /  25.4 mm 0.0 W/m2 CLR
03:41 3.9 °F /  -15.6 °C 3.0 °F /  -16.1 °C 1010.4 in /  34212.1 hPa North 13.0 mph /  20.9 km/h 13.0 mph /  20.9 km/h 94 % 1.3 in /  33.02 mm 0.0 W/m2 RA
03:46 3.9 °F /  -15.6 °C 3.0 °F /  -16.1 °C 1010.7 in /  34222.3 hPa NNW 16.7 mph /  26.9 km/h 16.7 mph /  26.9 km/h 94 % 1.0 in /  25.4 mm 0.0 W/m2 CLR
03:51 3.9 °F /  -15.6 °C 3.0 °F /  -16.1 °C 1010.7 in /  34222.3 hPa Calm     94 % 1.0 in /  25.4 mm 0.0 W/m2 CLR
03:56 3.9 °F /  -15.6 °C 3.0 °F /  -16.1 °C 1010.7 in /  34222.3 hPa North 18.5 mph /  29.8 km/h 18.5 mph /  29.8 km/h 94 % 1.0 in /  25.4 mm 0.0 W/m2 RA
04:01 3.9 °F /  -15.6 °C 3.0 °F /  -16.1 °C 1010.7 in /  34222.3 hPa NW 14.8 mph /  23.8 km/h 14.8 mph /  23.8 km/h 94 % 1.3 in /  33.02 mm 0.0 W/m2 RA
04:06 3.9 °F /  -15.6 °C 2.8 °F /  -16.2 °C 1010.4 in /  34212.1 hPa NW 16.7 mph /  26.9 km/h 16.7 mph /  26.9 km/h 93 % 1.3 in /  33.02 mm 0.0 W/m2 RA
04:11 3.9 °F /  -15.6 °C 2.8 °F /  -16.2 °C 1010.4 in /  34212.1 hPa NW 22.2 mph /  35.7 km/h 22.2 mph /  35.7 km/h 93 % 1.3 in /  33.02 mm 0.0 W/m2 RA
04:16 3.9 °F /  -15.6 °C 2.8 °F /  -16.2 °C 1010.4 in /  34212.1 hPa NNW 16.7 mph /  26.9 km/h 16.7 mph /  26.9 km/h 93 % 1.5 in /  38.1 mm 0.0 W/m2 RA
04:21 3.3 °F /  -15.9 °C 2.4 °F /  -16.4 °C 1010.4 in /  34212.1 hPa NW 13.0 mph /  20.9 km/h 13.0 mph /  20.9 km/h 94 % 1.5 in /  38.1 mm 0.0 W/m2 RA
04:26 3.3 °F /  -15.9 °C 2.3 °F /  -16.5 °C 1010.4 in /  34212.1 hPa NNW 18.5 mph /  29.8 km/h 18.5 mph /  29.8 km/h 93 % 1.5 in /  38.1 mm 0.0 W/m2
04:31 3.3 °F /  -15.9 °C 2.3 °F /  -16.5 °C 1010.4 in /  34212.1 hPa NW 13.0 mph /  20.9 km/h 13.0 mph /  20.9 km/h 93 % 1.5 in /  38.1 mm 0.0 W/m2 RA
04:36 3.3 °F /  -15.9 °C 2.3 °F /  -16.5 °C 1010.4 in /  34212.1 hPa NW 14.8 mph /  23.8 km/h 14.8 mph /  23.8 km/h 93 % 1.5 in /  38.1 mm 0.0 W/m2
04:41 3.3 °F /  -15.9 °C 2.3 °F /  -16.5 °C 1010.4 in /  34212.1 hPa NW 13.0 mph /  20.9 km/h 13.0 mph /  20.9 km/h 93 % 1.5 in /  38.1 mm 0.0 W/m2 RA
04:46 3.3 °F /  -15.9 °C 2.3 °F /  -16.5 °C 1010.4 in /  34212.1 hPa NW 18.5 mph /  29.8 km/h 18.5 mph /  29.8 km/h 93 % 1.5 in /  38.1 mm 0.0 W/m2
04:51 3.3 °F /  -15.9 °C 2.3 °F /  -16.5 °C 1010.4 in /  34212.1 hPa NNW 18.5 mph /  29.8 km/h 18.5 mph /  29.8 km/h 93 % 1.8 in /  45.72 mm 0.0 W/m2 RA
04:56 3.3 °F /  -15.9 °C 2.3 °F /  -16.5 °C 1010.4 in /  34212.1 hPa NNW 18.5 mph /  29.8 km/h 18.5 mph /  29.8 km/h 93 % 1.5 in /  38.1 mm 0.0 W/m2
05:01 3.3 °F /  -15.9 °C 2.3 °F /  -16.5 °C 1010.4 in /  34212.1 hPa NNW 18.5 mph /  29.8 km/h 18.5 mph /  29.8 km/h 93 % 1.5 in /  38.1 mm 0.0 W/m2 RA
05:06 3.3 °F /  -15.9 °C 2.3 °F /  -16.5 °C 1010.4 in /  34212.1 hPa WNW 11.1 mph /  17.9 km/h 11.1 mph /  17.9 km/h 93 % 1.5 in /  38.1 mm 0.0 W/m2 CLR
05:11 2.8 °F /  -16.2 °C 1.8 °F /  -16.8 °C 1010.4 in /  34212.1 hPa NW 18.5 mph /  29.8 km/h 18.5 mph /  29.8 km/h 93 % 1.5 in /  38.1 mm 0.0 W/m2 RA
05:16 2.8 °F /  -16.2 °C 1.8 °F /  -16.8 °C 1010.4 in /  34212.1 hPa NW 13.0 mph /  20.9 km/h 13.0 mph /  20.9 km/h 93 % 1.5 in /  38.1 mm 0.0 W/m2 RA
05:21 2.8 °F /  -16.2 °C 1.8 °F /  -16.8 °C 1010.4 in /  34212.1 hPa NW 14.8 mph /  23.8 km/h 14.8 mph /  23.8 km/h 93 % 1.3 in /  33.02 mm 0.0 W/m2 CLR
05:27 2.8 °F /  -16.2 °C 1.8 °F /  -16.8 °C 1010.4 in /  34212.1 hPa WNW 18.5 mph /  29.8 km/h 18.5 mph /  29.8 km/h 93 % 1.5 in /  38.1 mm 0.0 W/m2 RA
05:32 2.8 °F /  -16.2 °C 1.8 °F /  -16.8 °C 1010.4 in /  34212.1 hPa NW 18.5 mph /  29.8 km/h 18.5 mph /  29.8 km/h 93 % 1.3 in /  33.02 mm 0.0 W/m2 CLR
05:37 2.8 °F /  -16.2 °C 1.8 °F /  -16.8 °C 1010.4 in /  34212.1 hPa WNW 18.5 mph /  29.8 km/h 18.5 mph /  29.8 km/h 93 % 1.3 in /  33.02 mm 0.0 W/m2 CLR
05:42 2.8 °F /  -16.2 °C 1.8 °F /  -16.8 °C 1010.4 in /  34212.1 hPa NW 16.7 mph /  26.9 km/h 16.7 mph /  26.9 km/h 93 % 1.0 in /  25.4 mm 0.0 W/m2 CLR
05:47 2.8 °F /  -16.2 °C 1.8 °F /  -16.8 °C 1010.4 in /  34212.1 hPa West 12.9 mph /  20.8 km/h 12.9 mph /  20.8 km/h 93 % 1.3 in /  33.02 mm 0.0 W/m2 RA
05:52 2.8 °F /  -16.2 °C 1.8 °F /  -16.8 °C 1010.7 in /  34222.3 hPa NW 5.6 mph /  9 km/h 5.6 mph /  9 km/h 93 % 1.0 in /  25.4 mm 0.0 W/m2 CLR
05:57 2.2 °F /  -16.6 °C 1.2 °F /  -17.1 °C 1010.7 in /  34222.3 hPa WNW 5.6 mph /  9 km/h   93 % 1.0 in /  25.4 mm 0.0 W/m2 CLR
06:02 2.2 °F /  -16.6 °C 1.2 °F /  -17.1 °C 1010.7 in /  34222.3 hPa WNW 7.4 mph /  11.9 km/h 7.4 mph /  11.9 km/h 93 % 0.8 in /  20.32 mm 0.0 W/m2 CLR
06:07 2.2 °F /  -16.6 °C 1.2 °F /  -17.1 °C 1010.7 in /  34222.3 hPa Calm     93 % 0.8 in /  20.32 mm 0.0 W/m2 CLR
06:12 2.2 °F /  -16.6 °C 1.2 °F /  -17.1 °C 1010.7 in /  34222.3 hPa Calm     93 % 0.5 in /  12.7 mm 0.0 W/m2 CLR
06:17 2.2 °F /  -16.6 °C 1.2 °F /  -17.1 °C 1010.4 in /  34212.1 hPa West 3.7 mph /  6 km/h 3.7 mph /  6 km/h 93 % 0.5 in /  12.7 mm 0.0 W/m2 CLR
06:22 2.2 °F /  -16.6 °C 1.2 °F /  -17.1 °C 1010.4 in /  34212.1 hPa NW 14.8 mph /  23.8 km/h 14.8 mph /  23.8 km/h 93 % 0.5 in /  12.7 mm 0.0 W/m2 RA
06:27 2.2 °F /  -16.6 °C 1.2 °F /  -17.1 °C 1010.7 in /  34222.3 hPa NW 11.1 mph /  17.9 km/h 11.1 mph /  17.9 km/h 93 % 0.5 in /  12.7 mm 0.0 W/m2 CLR
06:32 2.2 °F /  -16.6 °C 1.2 °F /  -17.1 °C 1010.4 in /  34212.1 hPa WNW 14.5 mph /  23.3 km/h 14.5 mph /  23.3 km/h 93 % 0.5 in /  12.7 mm 0.0 W/m2 CLR
06:37 2.2 °F /  -16.6 °C 1.2 °F /  -17.1 °C 1010.7 in /  34222.3 hPa NW 14.8 mph /  23.8 km/h 14.8 mph /  23.8 km/h 93 % 0.5 in /  12.7 mm 0.0 W/m2 CLR
06:42 2.2 °F /  -16.6 °C 1.2 °F /  -17.1 °C 1010.4 in /  34212.1 hPa NW 20.9 mph /  33.6 km/h 20.9 mph /  33.6 km/h 93 % 0.5 in /  12.7 mm 0.0 W/m2 CLR
06:47 2.2 °F /  -16.6 °C 1.2 °F /  -17.1 °C 1010.4 in /  34212.1 hPa NW 22.2 mph /  35.7 km/h 22.2 mph /  35.7 km/h 93 % 0.3 in /  7.62 mm 0.0 W/m2 CLR
06:52 2.2 °F /  -16.6 °C 1.2 °F /  -17.1 °C 1010.7 in /  34222.3 hPa NNW 20.9 mph /  33.6 km/h 20.9 mph /  33.6 km/h 93 % 0.3 in /  7.62 mm 0.0 W/m2 CLR
06:57 2.2 °F /  -16.6 °C 1.2 °F /  -17.1 °C 1010.7 in /  34222.3 hPa NNW 19.3 mph /  31.1 km/h 19.3 mph /  31.1 km/h 93 % 0.3 in /  7.62 mm 0.0 W/m2 CLR
07:02 2.2 °F /  -16.6 °C 1.2 °F /  -17.1 °C 1010.7 in /  34222.3 hPa NW 18.5 mph /  29.8 km/h 18.5 mph /  29.8 km/h 93 % 0.5 in /  12.7 mm 0.0 W/m2 RA
07:07 2.2 °F /  -16.6 °C 1.2 °F /  -17.1 °C 1010.7 in /  34222.3 hPa NNW 22.2 mph /  35.7 km/h 22.2 mph /  35.7 km/h 93 % 0.5 in /  12.7 mm 0.0 W/m2 CLR
07:12 2.2 °F /  -16.6 °C 1.2 °F /  -17.1 °C 1010.7 in /  34222.3 hPa NW 22.2 mph /  35.7 km/h 22.2 mph /  35.7 km/h 93 % 0.5 in /  12.7 mm 0.0 W/m2 CLR
07:17 2.2 °F /  -16.6 °C 1.2 °F /  -17.1 °C 1010.7 in /  34222.3 hPa NW 19.3 mph /  31.1 km/h 19.3 mph /  31.1 km/h 93 % 0.5 in /  12.7 mm 0.0 W/m2 CLR
07:22 2.2 °F /  -16.6 °C 1.2 °F /  -17.1 °C 1010.7 in /  34222.3 hPa NW 24.1 mph /  38.8 km/h 24.1 mph /  38.8 km/h 93 % 0.3 in /  7.62 mm 0.0 W/m2 CLR
07:27 2.2 °F /  -16.6 °C 1.2 °F /  -17.1 °C 1010.7 in /  34222.3 hPa NW 24.1 mph /  38.8 km/h 24.1 mph /  38.8 km/h 93 % 0.3 in /  7.62 mm 0.0 W/m2 CLR
07:32 2.2 °F /  -16.6 °C 1.2 °F /  -17.1 °C 1010.7 in /  34222.3 hPa NW 18.5 mph /  29.8 km/h 18.5 mph /  29.8 km/h 93 % 0.3 in /  7.62 mm 0.0 W/m2 CLR
07:37 2.2 °F /  -16.6 °C 1.2 °F /  -17.1 °C 1010.7 in /  34222.3 hPa WNW 24.1 mph /  38.8 km/h 24.1 mph /  38.8 km/h 93 % 0.3 in /  7.62 mm 0.0 W/m2 CLR
07:42 2.2 °F /  -16.6 °C 1.2 °F /  -17.1 °C 1010.7 in /  34222.3 hPa NW 27.8 mph /  44.7 km/h 27.8 mph /  44.7 km/h 93 % 0.3 in /  7.62 mm 0.0 W/m2 CLR
07:47 2.2 °F /  -16.6 °C 1.2 °F /  -17.1 °C 1010.7 in /  34222.3 hPa NW 27.8 mph /  44.7 km/h 27.8 mph /  44.7 km/h 93 % 0.3 in /  7.62 mm 0.0 W/m2 CLR
07:52 2.2 °F /  -16.6 °C 1.2 °F /  -17.1 °C 1010.7 in /  34222.3 hPa NW 20.4 mph /  32.8 km/h 20.4 mph /  32.8 km/h 93 % 0.3 in /  7.62 mm 0.0 W/m2 CLR
07:57 2.2 °F /  -16.6 °C 1.2 °F /  -17.1 °C 1010.7 in /  34222.3 hPa NW 24.1 mph /  38.8 km/h 24.1 mph /  38.8 km/h 93 % 0.3 in /  7.62 mm 0.0 W/m2 CLR
08:02 2.2 °F /  -16.6 °C 1.2 °F /  -17.1 °C 1010.7 in /  34222.3 hPa NNW 25.9 mph /  41.7 km/h 25.9 mph /  41.7 km/h 93 % 0.0 in /  0 mm 0.0 W/m2 OVC
08:07 2.2 °F /  -16.6 °C 1.2 °F /  -17.1 °C 1011.1 in /  34235.8 hPa NW 24.1 mph /  38.8 km/h 24.1 mph /  38.8 km/h 93 % 0.0 in /  0 mm 0.0 W/m2 OVC
08:12 2.2 °F /  -16.6 °C 1.2 °F /  -17.1 °C 1011.1 in /  34235.8 hPa NW 22.2 mph /  35.7 km/h 22.2 mph /  35.7 km/h 93 % 0.3 in /  7.62 mm 0.0 W/m2 RA
08:17 2.2 °F /  -16.6 °C 1.2 °F /  -17.1 °C 1011.1 in /  34235.8 hPa NW 24.1 mph /  38.8 km/h 24.1 mph /  38.8 km/h 93 % 0.3 in /  7.62 mm 0.0 W/m2
08:22 1.7 °F /  -16.8 °C 0.7 °F /  -17.4 °C 1011.1 in /  34235.8 hPa NW 22.2 mph /  35.7 km/h 22.2 mph /  35.7 km/h 93 % 0.3 in /  7.62 mm 0.0 W/m2 CLR
08:27 1.7 °F /  -16.8 °C 0.7 °F /  -17.4 °C 1011.1 in /  34235.8 hPa NNW 22.2 mph /  35.7 km/h 22.2 mph /  35.7 km/h 93 % 0.3 in /  7.62 mm 0.0 W/m2 OVC
08:32 1.7 °F /  -16.8 °C 0.7 °F /  -17.4 °C 1011.1 in /  34235.8 hPa NNW 20.4 mph /  32.8 km/h 20.4 mph /  32.8 km/h 93 % 0.3 in /  7.62 mm 5.0 W/m2 OVC
08:37 1.7 °F /  -16.8 °C 0.7 °F /  -17.4 °C 1011.4 in /  34246 hPa NNW 25.9 mph /  41.7 km/h 25.9 mph /  41.7 km/h 93 % 0.3 in /  7.62 mm 7.0 W/m2 BKN
08:42 1.7 °F /  -16.8 °C 0.7 °F /  -17.4 °C 1011.4 in /  34246 hPa NNW 22.2 mph /  35.7 km/h 22.2 mph /  35.7 km/h 93 % 0.3 in /  7.62 mm 7.0 W/m2 BKN
08:47 1.7 °F /  -16.8 °C 0.7 °F /  -17.4 °C 1011.4 in /  34246 hPa NW 20.9 mph /  33.6 km/h 20.9 mph /  33.6 km/h 93 % 0.5 in /  12.7 mm 9.0 W/m2 RA
08:52 1.7 °F /  -16.8 °C 0.7 °F /  -17.4 °C 1011.4 in /  34246 hPa NNW 25.9 mph /  41.7 km/h 25.9 mph /  41.7 km/h 93 % 0.5 in /  12.7 mm 11.0 W/m2 BKN
08:57 1.7 °F /  -16.8 °C 0.7 °F /  -17.4 °C 1011.4 in /  34246 hPa North 27.8 mph /  44.7 km/h 27.8 mph /  44.7 km/h 93 % 0.5 in /  12.7 mm 11.0 W/m2 BKN
09:02 1.1 °F /  -17.2 °C 0.1 °F /  -17.7 °C 1011.4 in /  34246 hPa NNW 25.7 mph /  41.4 km/h 25.7 mph /  41.4 km/h 93 % 0.5 in /  12.7 mm 11.0 W/m2 BKN
09:07 1.1 °F /  -17.2 °C 0.1 °F /  -17.7 °C 1011.4 in /  34246 hPa NW 22.2 mph /  35.7 km/h 22.2 mph /  35.7 km/h 93 % 0.5 in /  12.7 mm 12.0 W/m2 BKN
09:12 1.1 °F /  -17.2 °C 0.1 °F /  -17.7 °C 1011.4 in /  34246 hPa NW 24.1 mph /  38.8 km/h 24.1 mph /  38.8 km/h 93 % 0.3 in /  7.62 mm 9.0 W/m2 BKN
09:17 1.1 °F /  -17.2 °C 0.1 °F /  -17.7 °C 1011.7 in /  34256.2 hPa NNW 20.4 mph /  32.8 km/h 20.4 mph /  32.8 km/h 93 % 0.5 in /  12.7 mm 9.0 W/m2 RA
09:22 1.1 °F /  -17.2 °C 0.1 °F /  -17.7 °C 1011.7 in /  34256.2 hPa NNW 25.9 mph /  41.7 km/h 25.9 mph /  41.7 km/h 93 % 0.5 in /  12.7 mm 9.0 W/m2 BKN
09:27 1.1 °F /  -17.2 °C 0.1 °F /  -17.7 °C 1011.7 in /  34256.2 hPa NW 25.9 mph /  41.7 km/h 25.9 mph /  41.7 km/h 93 % 0.5 in /  12.7 mm 9.0 W/m2 BKN
09:32 1.1 °F /  -17.2 °C 0.1 °F /  -17.7 °C 1011.7 in /  34256.2 hPa NW 22.2 mph /  35.7 km/h 22.2 mph /  35.7 km/h 93 % 0.5 in /  12.7 mm 9.0 W/m2 BKN
09:37 1.1 °F /  -17.2 °C 0.1 °F /  -17.7 °C 1011.7 in /  34256.2 hPa NNW 24.1 mph /  38.8 km/h 24.1 mph /  38.8 km/h 93 % 0.5 in /  12.7 mm 12.0 W/m2 BKN
09:42 1.1 °F /  -17.2 °C 0.1 °F /  -17.7 °C 1011.7 in /  34256.2 hPa NW 24.1 mph /  38.8 km/h 24.1 mph /  38.8 km/h 93 % 0.5 in /  12.7 mm 16.0 W/m2 BKN
09:47 1.1 °F /  -17.2 °C 0.1 °F /  -17.7 °C 1011.7 in /  34256.2 hPa NNW 20.4 mph /  32.8 km/h 20.4 mph /  32.8 km/h 93 % 0.3 in /  7.62 mm 21.0 W/m2 BKN
09:52 1.1 °F /  -17.2 °C 0.1 °F /  -17.7 °C 1012.1 in /  34269.7 hPa NW 18.5 mph /  29.8 km/h 18.5 mph /  29.8 km/h 93 % 0.3 in /  7.62 mm 21.0 W/m2 BKN
09:57 1.1 °F /  -17.2 °C 0.1 °F /  -17.7 °C 1012.1 in /  34269.7 hPa NW 30.6 mph /  49.2 km/h 30.6 mph /  49.2 km/h 93 % 0.5 in /  12.7 mm 23.0 W/m2 RA
10:02 1.1 °F /  -17.2 °C 0.1 °F /  -17.7 °C 1012.1 in /  34269.7 hPa NW 16.7 mph /  26.9 km/h 16.7 mph /  26.9 km/h 93 % 0.5 in /  12.7 mm 28.0 W/m2 BKN
10:07 1.1 °F /  -17.2 °C 0.1 °F /  -17.7 °C 1012.4 in /  34279.9 hPa NW 16.7 mph /  26.9 km/h 16.7 mph /  26.9 km/h 93 % 0.5 in /  12.7 mm 40.0 W/m2 BKN
10:12 1.1 °F /  -17.2 °C 0.1 °F /  -17.7 °C 1012.4 in /  34279.9 hPa WNW 18.5 mph /  29.8 km/h 18.5 mph /  29.8 km/h 93 % 0.5 in /  12.7 mm 46.0 W/m2 BKN
10:17 1.1 °F /  -17.2 °C 0.1 °F /  -17.7 °C 1012.4 in /  34279.9 hPa NW 18.5 mph /  29.8 km/h 18.5 mph /  29.8 km/h 93 % 0.3 in /  7.62 mm 40.0 W/m2 BKN
10:22 1.1 °F /  -17.2 °C 0.1 °F /  -17.7 °C 1012.4 in /  34279.9 hPa NW 20.4 mph /  32.8 km/h 20.4 mph /  32.8 km/h 93 % 0.3 in /  7.62 mm 44.0 W/m2 BKN
10:27 1.1 °F /  -17.2 °C 0.1 °F /  -17.7 °C 1012.4 in /  34279.9 hPa NW 18.5 mph /  29.8 km/h 18.5 mph /  29.8 km/h 93 % 0.5 in /  12.7 mm 58.0 W/m2 RA
10:33 1.1 °F /  -17.2 °C 0.1 °F /  -17.7 °C 1012.4 in /  34279.9 hPa NW 22.5 mph /  36.2 km/h 22.5 mph /  36.2 km/h 93 % 0.5 in /  12.7 mm 72.0 W/m2 SCT
10:38 1.1 °F /  -17.2 °C 0.1 °F /  -17.7 °C 1012.4 in /  34279.9 hPa WNW 22.5 mph /  36.2 km/h 22.5 mph /  36.2 km/h 93 % 0.5 in /  12.7 mm 58.0 W/m2 FEW
10:42 1.1 °F /  -17.2 °C 0.1 °F /  -17.7 °C 1012.8 in /  34293.4 hPa NW 24.1 mph /  38.8 km/h 24.1 mph /  38.8 km/h 93 % 0.5 in /  12.7 mm 49.0 W/m2 SCT
10:48 1.1 °F /  -17.2 °C 0.1 °F /  -17.7 °C 1012.8 in /  34293.4 hPa WNW 14.5 mph /  23.3 km/h 14.5 mph /  23.3 km/h 93 % 0.5 in /  12.7 mm 51.0 W/m2 SCT
10:52 1.1 °F /  -17.2 °C 0.3 °F /  -17.6 °C 1012.8 in /  34293.4 hPa NW 16.7 mph /  26.9 km/h 16.7 mph /  26.9 km/h 94 % 0.5 in /  12.7 mm 49.0 W/m2 SCT
10:58 1.1 °F /  -17.2 °C 0.3 °F /  -17.6 °C 1013.1 in /  34303.6 hPa WNW 18.5 mph /  29.8 km/h 18.5 mph /  29.8 km/h 94 % 0.5 in /  12.7 mm 56.0 W/m2 RA
11:03 1.1 °F /  -17.2 °C 0.3 °F /  -17.6 °C 1013.1 in /  34303.6 hPa WNW 14.8 mph /  23.8 km/h 14.8 mph /  23.8 km/h 94 % 0.5 in /  12.7 mm 63.0 W/m2 SCT
11:08 1.1 °F /  -17.2 °C 0.3 °F /  -17.6 °C 1013.1 in /  34303.6 hPa WNW 13.0 mph /  20.9 km/h 13.0 mph /  20.9 km/h 94 % 0.5 in /  12.7 mm 62.0 W/m2 SCT
11:13 1.1 °F /  -17.2 °C 0.3 °F /  -17.6 °C 1013.1 in /  34303.6 hPa WNW 18.5 mph /  29.8 km/h 18.5 mph /  29.8 km/h 94 % 0.5 in /  12.7 mm 81.0 W/m2 FEW
11:18 1.1 °F /  -17.2 °C 0.3 °F /  -17.6 °C 1013.1 in /  34303.6 hPa WNW 16.7 mph /  26.9 km/h 16.7 mph /  26.9 km/h 94 % 0.5 in /  12.7 mm 91.0 W/m2 RA
11:23 1.1 °F /  -17.2 °C 0.3 °F /  -17.6 °C 1013.1 in /  34303.6 hPa WNW 16.7 mph /  26.9 km/h 16.7 mph /  26.9 km/h 94 % 0.5 in /  12.7 mm 95.0 W/m2 CLR
11:28 1.1 °F /  -17.2 °C 0.3 °F /  -17.6 °C 1013.1 in /  34303.6 hPa WNW 24.1 mph /  38.8 km/h 24.1 mph /  38.8 km/h 94 % 0.5 in /  12.7 mm 77.0 W/m2 CLR
11:33 1.1 °F /  -17.2 °C 0.3 °F /  -17.6 °C 1013.4 in /  34313.7 hPa NW 18.5 mph /  29.8 km/h 18.5 mph /  29.8 km/h 94 % 0.5 in /  12.7 mm 56.0 W/m2 FEW
11:38 1.1 °F /  -17.2 °C 0.3 °F /  -17.6 °C 1013.4 in /  34313.7 hPa NW 18.5 mph /  29.8 km/h 18.5 mph /  29.8 km/h 94 % 0.5 in /  12.7 mm 63.0 W/m2 SCT
11:43 1.1 °F /  -17.2 °C 0.3 °F /  -17.6 °C 1013.4 in /  34313.7 hPa WNW 22.2 mph /  35.7 km/h 22.2 mph /  35.7 km/h 94 % 0.5 in /  12.7 mm 84.0 W/m2 FEW
11:48 1.1 °F /  -17.2 °C 0.3 °F /  -17.6 °C 1013.4 in /  34313.7 hPa NW 16.7 mph /  26.9 km/h 16.7 mph /  26.9 km/h 94 % 0.8 in /  20.32 mm 90.0 W/m2 RA
11:53 1.1 °F /  -17.2 °C 0.3 °F /  -17.6 °C 1013.4 in /  34313.7 hPa NW 18.5 mph /  29.8 km/h 18.5 mph /  29.8 km/h 94 % 0.8 in /  20.32 mm 100.0 W/m2 CLR
11:58 1.1 °F /  -17.2 °C 0.3 °F /  -17.6 °C 1013.4 in /  34313.7 hPa NW 16.1 mph /  25.9 km/h 16.1 mph /  25.9 km/h 94 % 0.5 in /  12.7 mm 114.0 W/m2 CLR
12:03 1.1 °F /  -17.2 °C 0.3 °F /  -17.6 °C 1013.4 in /  34313.7 hPa NW 20.4 mph /  32.8 km/h 20.4 mph /  32.8 km/h 94 % 0.5 in /  12.7 mm 127.0 W/m2 CLR
12:08 1.1 °F /  -17.2 °C 0.3 °F /  -17.6 °C 1013.4 in /  34313.7 hPa NW 20.4 mph /  32.8 km/h 20.4 mph /  32.8 km/h 94 % 0.8 in /  20.32 mm 132.0 W/m2 RA
12:13 1.1 °F /  -17.2 °C 0.3 °F /  -17.6 °C 1013.4 in /  34313.7 hPa NW 22.5 mph /  36.2 km/h 22.5 mph /  36.2 km/h 94 % 0.8 in /  20.32 mm 134.0 W/m2 CLR
12:18 1.7 °F /  -16.8 °C 0.7 °F /  -17.4 °C 1013.4 in /  34313.7 hPa NW 25.9 mph /  41.7 km/h 25.9 mph /  41.7 km/h 93 % 0.8 in /  20.32 mm 153.0 W/m2 RA
12:23 1.7 °F /  -16.8 °C 0.7 °F /  -17.4 °C 1013.4 in /  34313.7 hPa WNW 20.4 mph /  32.8 km/h 20.4 mph /  32.8 km/h 93 % 0.8 in /  20.32 mm 146.0 W/m2 CLR
12:28 1.7 °F /  -16.8 °C 0.7 °F /  -17.4 °C 1013.4 in /  34313.7 hPa WNW 18.5 mph /  29.8 km/h 18.5 mph /  29.8 km/h 93 % 0.5 in /  12.7 mm 162.0 W/m2 CLR
12:33 1.7 °F /  -16.8 °C 0.7 °F /  -17.4 °C 1013.4 in /  34313.7 hPa NW 20.4 mph /  32.8 km/h 20.4 mph /  32.8 km/h 93 % 0.8 in /  20.32 mm 153.0 W/m2 RA
12:38 1.7 °F /  -16.8 °C 0.7 °F /  -17.4 °C 1013.1 in /  34303.6 hPa NW 16.7 mph /  26.9 km/h 16.7 mph /  26.9 km/h 93 % 0.8 in /  20.32 mm 142.0 W/m2 CLR
12:43 1.7 °F /  -16.8 °C 0.8 °F /  -17.3 °C 1013.1 in /  34303.6 hPa NW 24.1 mph /  38.8 km/h 24.1 mph /  38.8 km/h 94 % 0.8 in /  20.32 mm 156.0 W/m2 CLR
12:48 1.7 °F /  -16.8 °C 0.7 °F /  -17.4 °C 1013.1 in /  34303.6 hPa NNW 20.4 mph /  32.8 km/h 20.4 mph /  32.8 km/h 93 % 0.8 in /  20.32 mm 142.0 W/m2 RA
12:53 1.7 °F /  -16.8 °C 0.7 °F /  -17.4 °C 1013.1 in /  34303.6 hPa NNW 33.3 mph /  53.6 km/h 33.3 mph /  53.6 km/h 93 % 0.8 in /  20.32 mm 125.0 W/m2 CLR
12:58 1.7 °F /  -16.8 °C 0.7 °F /  -17.4 °C 1013.1 in /  34303.6 hPa NW 29.6 mph /  47.6 km/h 29.6 mph /  47.6 km/h 93 % 1.0 in /  25.4 mm 109.0 W/m2 RA
13:03 1.7 °F /  -16.8 °C 0.7 °F /  -17.4 °C 1013.1 in /  34303.6 hPa NW 17.7 mph /  28.5 km/h 17.7 mph /  28.5 km/h 93 % 1.0 in /  25.4 mm 104.0 W/m2 CLR
13:08 1.7 °F /  -16.8 °C 0.7 °F /  -17.4 °C 1012.8 in /  34293.4 hPa NNW 16.7 mph /  26.9 km/h 16.7 mph /  26.9 km/h 93 % 0.8 in /  20.32 mm 102.0 W/m2 CLR
13:13 1.7 °F /  -16.8 °C 0.7 °F /  -17.4 °C 1012.8 in /  34293.4 hPa NW 22.5 mph /  36.2 km/h 22.5 mph /  36.2 km/h 93 % 0.8 in /  20.32 mm 88.0 W/m2 CLR
13:18 1.7 °F /  -16.8 °C 0.7 °F /  -17.4 °C 1013.1 in /  34303.6 hPa NW 18.5 mph /  29.8 km/h 18.5 mph /  29.8 km/h 93 % 0.5 in /  12.7 mm 69.0 W/m2 FEW
13:23 1.7 °F /  -16.8 °C 0.7 °F /  -17.4 °C 1013.1 in /  34303.6 hPa NW 24.1 mph /  38.8 km/h 24.1 mph /  38.8 km/h 93 % 0.8 in /  20.32 mm 77.0 W/m2 RA
13:28 1.7 °F /  -16.8 °C 0.7 °F /  -17.4 °C 1012.8 in /  34293.4 hPa WNW 18.5 mph /  29.8 km/h 18.5 mph /  29.8 km/h 93 % 0.8 in /  20.32 mm 67.0 W/m2 FEW
13:33 1.7 °F /  -16.8 °C 0.7 °F /  -17.4 °C 1012.8 in /  34293.4 hPa WNW 24.1 mph /  38.8 km/h 24.1 mph /  38.8 km/h 93 % 0.5 in /  12.7 mm 58.0 W/m2 FEW
13:38 1.7 °F /  -16.8 °C 0.7 °F /  -17.4 °C 1012.8 in /  34293.4 hPa NW 20.4 mph /  32.8 km/h 20.4 mph /  32.8 km/h 93 % 0.5 in /  12.7 mm 72.0 W/m2 SCT
13:43 1.7 °F /  -16.8 °C 0.7 °F /  -17.4 °C 1012.8 in /  34293.4 hPa WNW 18.5 mph /  29.8 km/h 18.5 mph /  29.8 km/h 93 % 0.5 in /  12.7 mm 81.0 W/m2 FEW
13:48 1.7 °F /  -16.8 °C 0.7 °F /  -17.4 °C 1012.8 in /  34293.4 hPa NW 18.5 mph /  29.8 km/h 18.5 mph /  29.8 km/h 93 % 0.5 in /  12.7 mm 97.0 W/m2 RA
13:53 1.7 °F /  -16.8 °C 0.7 °F /  -17.4 °C 1012.8 in /  34293.4 hPa West 24.1 mph /  38.8 km/h 24.1 mph /  38.8 km/h 93 % 0.5 in /  12.7 mm 98.0 W/m2 CLR
13:58 1.7 °F /  -16.8 °C 0.7 °F /  -17.4 °C 1012.4 in /  34279.9 hPa WNW 22.2 mph /  35.7 km/h 22.2 mph /  35.7 km/h 93 % 0.5 in /  12.7 mm 134.0 W/m2 CLR
14:03 1.7 °F /  -16.8 °C 0.7 °F /  -17.4 °C 1012.8 in /  34293.4 hPa WNW 18.5 mph /  29.8 km/h 18.5 mph /  29.8 km/h 93 % 0.5 in /  12.7 mm 142.0 W/m2 CLR
14:08 1.7 °F /  -16.8 °C 0.7 °F /  -17.4 °C 1012.8 in /  34293.4 hPa NW 29.6 mph /  47.6 km/h 29.6 mph /  47.6 km/h 93 % 0.5 in /  12.7 mm 132.0 W/m2 CLR
14:13 1.7 °F /  -16.8 °C 0.7 °F /  -17.4 °C 1012.4 in /  34279.9 hPa NW 20.4 mph /  32.8 km/h 20.4 mph /  32.8 km/h 93 % 0.5 in /  12.7 mm 123.0 W/m2 CLR
14:18 1.7 °F /  -16.8 °C 0.7 °F /  -17.4 °C 1012.4 in /  34279.9 hPa WNW 22.2 mph /  35.7 km/h 22.2 mph /  35.7 km/h 93 % 0.5 in /  12.7 mm 111.0 W/m2 CLR
14:23 1.7 °F /  -16.8 °C 0.7 °F /  -17.4 °C 1012.4 in /  34279.9 hPa WNW 20.4 mph /  32.8 km/h 20.4 mph /  32.8 km/h 93 % 0.3 in /  7.62 mm 102.0 W/m2 CLR
14:28 1.7 °F /  -16.8 °C 0.7 °F /  -17.4 °C 1012.4 in /  34279.9 hPa WNW 24.1 mph /  38.8 km/h 24.1 mph /  38.8 km/h 93 % 0.5 in /  12.7 mm 100.0 W/m2 RA
14:33 1.7 °F /  -16.8 °C 0.7 °F /  -17.4 °C 1012.4 in /  34279.9 hPa NW 24.1 mph /  38.8 km/h 24.1 mph /  38.8 km/h 93 % 0.5 in /  12.7 mm 100.0 W/m2 CLR
14:38 1.7 °F /  -16.8 °C 0.7 °F /  -17.4 °C 1012.4 in /  34279.9 hPa NW 27.8 mph /  44.7 km/h 27.8 mph /  44.7 km/h 93 % 0.5 in /  12.7 mm 100.0 W/m2 CLR
14:43 1.7 °F /  -16.8 °C 0.7 °F /  -17.4 °C 1012.4 in /  34279.9 hPa NW 16.1 mph /  25.9 km/h 16.1 mph /  25.9 km/h 93 % 0.5 in /  12.7 mm 105.0 W/m2 CLR
14:48 1.7 °F /  -16.8 °C 0.5 °F /  -17.5 °C 1012.4 in /  34279.9 hPa West 18.5 mph /  29.8 km/h 18.5 mph /  29.8 km/h 92 % 0.3 in /  7.62 mm 102.0 W/m2 CLR
14:53 1.7 °F /  -16.8 °C 0.5 °F /  -17.5 °C 1012.4 in /  34279.9 hPa WNW 18.5 mph /  29.8 km/h 18.5 mph /  29.8 km/h 92 % 0.3 in /  7.62 mm 100.0 W/m2 CLR
14:58 1.7 °F /  -16.8 °C 0.5 °F /  -17.5 °C 1012.4 in /  34279.9 hPa WNW 25.9 mph /  41.7 km/h 25.9 mph /  41.7 km/h 92 % 0.5 in /  12.7 mm 98.0 W/m2 RA
15:03 1.7 °F /  -16.8 °C 0.5 °F /  -17.5 °C 1012.4 in /  34279.9 hPa WNW 22.2 mph /  35.7 km/h 22.2 mph /  35.7 km/h 92 % 0.5 in /  12.7 mm 97.0 W/m2 CLR
15:08 1.7 °F /  -16.8 °C 0.5 °F /  -17.5 °C 1012.4 in /  34279.9 hPa WNW 20.4 mph /  32.8 km/h 20.4 mph /  32.8 km/h 92 % 0.5 in /  12.7 mm 93.0 W/m2 CLR
15:13 1.7 °F /  -16.8 °C 0.5 °F /  -17.5 °C 1012.4 in /  34279.9 hPa WNW 24.1 mph /  38.8 km/h 24.1 mph /  38.8 km/h 92 % 0.5 in /  12.7 mm 91.0 W/m2 CLR
15:18 1.7 °F /  -16.8 °C 0.5 °F /  -17.5 °C 1012.1 in /  34269.7 hPa WNW 24.1 mph /  38.8 km/h 24.1 mph /  38.8 km/h 92 % 0.5 in /  12.7 mm 90.0 W/m2 CLR
15:23 1.7 °F /  -16.8 °C 0.5 °F /  -17.5 °C 1012.4 in /  34279.9 hPa WNW 29.6 mph /  47.6 km/h 29.6 mph /  47.6 km/h 92 % 0.5 in /  12.7 mm 88.0 W/m2 RA
15:28 1.7 °F /  -16.8 °C 0.5 °F /  -17.5 °C 1012.1 in /  34269.7 hPa NW 20.4 mph /  32.8 km/h 20.4 mph /  32.8 km/h 92 % 0.5 in /  12.7 mm 95.0 W/m2 CLR
15:33 1.7 °F /  -16.8 °C 0.5 °F /  -17.5 °C 1012.4 in /  34279.9 hPa NW 20.9 mph /  33.6 km/h 20.9 mph /  33.6 km/h 92 % 0.5 in /  12.7 mm 102.0 W/m2 CLR
15:38 1.7 °F /  -16.8 °C 0.5 °F /  -17.5 °C 1012.4 in /  34279.9 hPa WNW 18.5 mph /  29.8 km/h 18.5 mph /  29.8 km/h 92 % 0.5 in /  12.7 mm 105.0 W/m2 CLR
15:43 1.7 °F /  -16.8 °C 0.5 °F /  -17.5 °C 1012.4 in /  34279.9 hPa WNW 18.5 mph /  29.8 km/h 18.5 mph /  29.8 km/h 92 % 0.5 in /  12.7 mm 102.0 W/m2 RA
15:48 1.7 °F /  -16.8 °C 0.5 °F /  -17.5 °C 1012.4 in /  34279.9 hPa WNW 22.2 mph /  35.7 km/h 22.2 mph /  35.7 km/h 92 % 0.5 in /  12.7 mm 97.0 W/m2 CLR
15:53 1.7 °F /  -16.8 °C 0.5 °F /  -17.5 °C 1012.4 in /  34279.9 hPa West 14.8 mph /  23.8 km/h 14.8 mph /  23.8 km/h 92 % 0.5 in /  12.7 mm 100.0 W/m2 CLR
15:58 1.7 °F /  -16.8 °C 0.5 °F /  -17.5 °C 1012.4 in /  34279.9 hPa WNW 14.8 mph /  23.8 km/h 14.8 mph /  23.8 km/h 92 % 0.5 in /  12.7 mm 95.0 W/m2 RA
16:03 1.7 °F /  -16.8 °C 0.5 °F /  -17.5 °C 1012.4 in /  34279.9 hPa West 16.7 mph /  26.9 km/h 16.7 mph /  26.9 km/h 92 % 0.5 in /  12.7 mm 79.0 W/m2 CLR
16:08 1.7 °F /  -16.8 °C 0.5 °F /  -17.5 °C 1012.4 in /  34279.9 hPa West 18.5 mph /  29.8 km/h 18.5 mph /  29.8 km/h 92 % 0.5 in /  12.7 mm 67.0 W/m2 FEW
16:13 1.7 °F /  -16.8 °C 0.5 °F /  -17.5 °C 1012.4 in /  34279.9 hPa WNW 18.5 mph /  29.8 km/h 18.5 mph /  29.8 km/h 92 % 0.5 in /  12.7 mm 56.0 W/m2 FEW
16:18 1.7 °F /  -16.8 °C 0.5 °F /  -17.5 °C 1012.4 in /  34279.9 hPa West 16.1 mph /  25.9 km/h 16.1 mph /  25.9 km/h 92 % 0.5 in /  12.7 mm 51.0 W/m2 SCT
16:23 1.7 °F /  -16.8 °C 0.5 °F /  -17.5 °C 1012.4 in /  34279.9 hPa WNW 11.1 mph /  17.9 km/h 11.1 mph /  17.9 km/h 92 % 0.5 in /  12.7 mm 47.0 W/m2 RA
16:28 1.7 °F /  -16.8 °C 0.5 °F /  -17.5 °C 1012.4 in /  34279.9 hPa WNW 16.7 mph /  26.9 km/h 16.7 mph /  26.9 km/h 92 % 0.5 in /  12.7 mm 44.0 W/m2 SCT
16:33 1.7 °F /  -16.8 °C 0.5 °F /  -17.5 °C 1012.4 in /  34279.9 hPa WNW 14.8 mph /  23.8 km/h 14.8 mph /  23.8 km/h 92 % 0.5 in /  12.7 mm 40.0 W/m2 BKN
16:38 1.7 °F /  -16.8 °C 0.5 °F /  -17.5 °C 1012.4 in /  34279.9 hPa West 14.8 mph /  23.8 km/h 14.8 mph /  23.8 km/h 92 % 0.5 in /  12.7 mm 37.0 W/m2 BKN
16:44 1.7 °F /  -16.8 °C 0.5 °F /  -17.5 °C 1012.4 in /  34279.9 hPa WNW 18.5 mph /  29.8 km/h 18.5 mph /  29.8 km/h 92 % 0.5 in /  12.7 mm 35.0 W/m2 BKN
16:49 1.7 °F /  -16.8 °C 0.5 °F /  -17.5 °C 1012.4 in /  34279.9 hPa WSW 11.1 mph /  17.9 km/h 11.1 mph /  17.9 km/h 92 % 0.5 in /  12.7 mm 33.0 W/m2 BKN
16:54 1.7 °F /  -16.8 °C 0.5 °F /  -17.5 °C 1012.4 in /  34279.9 hPa West 5.6 mph /  9 km/h 5.6 mph /  9 km/h 92 % 0.5 in /  12.7 mm 30.0 W/m2 BKN
16:59 1.7 °F /  -16.8 °C 0.5 °F /  -17.5 °C 1012.4 in /  34279.9 hPa WSW 5.6 mph /  9 km/h 5.6 mph /  9 km/h 92 % 0.3 in /  7.62 mm 26.0 W/m2 BKN
17:04 1.7 °F /  -16.8 °C 0.5 °F /  -17.5 °C 1012.4 in /  34279.9 hPa Calm     92 % 0.3 in /  7.62 mm 25.0 W/m2 BKN
17:09 1.7 °F /  -16.8 °C 0.5 °F /  -17.5 °C 1012.4 in /  34279.9 hPa WSW 6.4 mph /  10.3 km/h 6.4 mph /  10.3 km/h 92 % 0.3 in /  7.62 mm 23.0 W/m2 BKN
17:14 1.7 °F /  -16.8 °C 0.5 °F /  -17.5 °C 1012.4 in /  34279.9 hPa Calm     92 % 0.5 in /  12.7 mm 21.0 W/m2 RA
17:19 1.7 °F /  -16.8 °C 0.5 °F /  -17.5 °C 1012.4 in /  34279.9 hPa Calm     92 % 0.5 in /  12.7 mm 19.0 W/m2 BKN
17:24 2.2 °F /  -16.6 °C 1.1 °F /  -17.2 °C 1012.4 in /  34279.9 hPa Calm     92 % 0.3 in /  7.62 mm 18.0 W/m2 BKN
17:29 2.2 °F /  -16.6 °C 0.9 °F /  -17.3 °C 1012.4 in /  34279.9 hPa WSW 5.6 mph /  9 km/h 5.6 mph /  9 km/h 91 % 0.3 in /  7.62 mm 16.0 W/m2 BKN
17:34 2.2 °F /  -16.6 °C 0.9 °F /  -17.3 °C 1012.4 in /  34279.9 hPa Calm     91 % 0.3 in /  7.62 mm 16.0 W/m2 BKN
17:39 2.2 °F /  -16.6 °C 0.9 °F /  -17.3 °C 1012.4 in /  34279.9 hPa WSW 5.6 mph /  9 km/h 5.6 mph /  9 km/h 91 % 0.3 in /  7.62 mm 12.0 W/m2 BKN
17:44 2.2 °F /  -16.6 °C 0.9 °F /  -17.3 °C 1012.4 in /  34279.9 hPa WSW 7.4 mph /  11.9 km/h 7.4 mph /  11.9 km/h 91 % 0.3 in /  7.62 mm 11.0 W/m2 BKN
17:49 2.2 °F /  -16.6 °C 0.9 °F /  -17.3 °C 1012.4 in /  34279.9 hPa WSW 11.3 mph /  18.2 km/h 11.3 mph /  18.2 km/h 91 % 0.3 in /  7.62 mm 9.0 W/m2 BKN
17:54 2.2 °F /  -16.6 °C 0.8 °F /  -17.3 °C 1012.4 in /  34279.9 hPa WSW 14.8 mph /  23.8 km/h 14.8 mph /  23.8 km/h 90 % 0.3 in /  7.62 mm 9.0 W/m2 BKN
17:59 2.2 °F /  -16.6 °C 0.8 °F /  -17.3 °C 1012.4 in /  34279.9 hPa WSW 12.9 mph /  20.8 km/h 12.9 mph /  20.8 km/h 90 % 0.3 in /  7.62 mm 7.0 W/m2 BKN
18:04 2.2 °F /  -16.6 °C 0.8 °F /  -17.3 °C 1012.4 in /  34279.9 hPa WSW 7.4 mph /  11.9 km/h 7.4 mph /  11.9 km/h 90 % 0.3 in /  7.62 mm 5.0 W/m2 OVC
18:09 2.2 °F /  -16.6 °C 0.8 °F /  -17.3 °C 1012.4 in /  34279.9 hPa West 12.9 mph /  20.8 km/h 12.9 mph /  20.8 km/h 90 % 0.3 in /  7.62 mm 5.0 W/m2 OVC
18:14 2.2 °F /  -16.6 °C 0.8 °F /  -17.3 °C 1012.4 in /  34279.9 hPa WSW 13.0 mph /  20.9 km/h 13.0 mph /  20.9 km/h 90 % 0.0 in /  0 mm 0.0 W/m2 OVC
18:19 2.2 °F /  -16.6 °C 0.8 °F /  -17.3 °C 1012.4 in /  34279.9 hPa West 14.8 mph /  23.8 km/h 14.8 mph /  23.8 km/h 90 % 0.0 in /  0 mm 0.0 W/m2 OVC
18:24 2.2 °F /  -16.6 °C 0.8 °F /  -17.3 °C 1012.4 in /  34279.9 hPa West 11.3 mph /  18.2 km/h 11.3 mph /  18.2 km/h 90 % 0.0 in /  0 mm 0.0 W/m2 OVC
18:29 2.2 °F /  -16.6 °C 0.8 °F /  -17.3 °C 1012.4 in /  34279.9 hPa West 12.9 mph /  20.8 km/h 12.9 mph /  20.8 km/h 90 % 0.0 in /  0 mm 0.0 W/m2 OVC
18:34 2.2 °F /  -16.6 °C 0.8 °F /  -17.3 °C 1012.4 in /  34279.9 hPa West 9.7 mph /  15.6 km/h 9.7 mph /  15.6 km/h 90 % 0.0 in /  0 mm 0.0 W/m2 CLR
18:39 2.2 °F /  -16.6 °C 0.6 °F /  -17.4 °C 1012.4 in /  34279.9 hPa West 16.7 mph /  26.9 km/h 16.7 mph /  26.9 km/h 89 % 0.0 in /  0 mm 0.0 W/m2 CLR
18:44 2.2 °F /  -16.6 °C 0.6 °F /  -17.4 °C 1012.8 in /  34293.4 hPa West 18.5 mph /  29.8 km/h 18.5 mph /  29.8 km/h 89 % 0.0 in /  0 mm 0.0 W/m2 CLR
18:49 2.2 °F /  -16.6 °C 0.4 °F /  -17.6 °C 1012.8 in /  34293.4 hPa West 11.1 mph /  17.9 km/h 11.1 mph /  17.9 km/h 88 % 0.0 in /  0 mm 0.0 W/m2 CLR
18:54 2.2 °F /  -16.6 °C 0.4 °F /  -17.6 °C 1012.8 in /  34293.4 hPa WNW 11.1 mph /  17.9 km/h 11.1 mph /  17.9 km/h 88 % 0.0 in /  0 mm 0.0 W/m2 CLR
18:59 2.8 °F /  -16.2 °C 1.0 °F /  -17.2 °C 1012.8 in /  34293.4 hPa WSW 14.8 mph /  23.8 km/h 14.8 mph /  23.8 km/h 88 % 0.0 in /  0 mm 0.0 W/m2 CLR
19:04 2.8 °F /  -16.2 °C 0.8 °F /  -17.3 °C 1012.8 in /  34293.4 hPa West 11.1 mph /  17.9 km/h 11.1 mph /  17.9 km/h 87 % 0.0 in /  0 mm 0.0 W/m2 CLR
19:09 2.8 °F /  -16.2 °C 0.8 °F /  -17.3 °C 1012.8 in /  34293.4 hPa WNW 14.8 mph /  23.8 km/h 14.8 mph /  23.8 km/h 87 % 0.3 in /  7.62 mm 0.0 W/m2 RA
19:10 2.8 °F /  -16.2 °C 0.8 °F /  -17.3 °C 1012.8 in /  34293.4 hPa West 14.8 mph /  23.8 km/h 14.8 mph /  23.8 km/h 87 % 0.3 in /  7.62 mm 0.0 W/m2 RA
19:15 2.8 °F /  -16.2 °C 0.7 °F /  -17.4 °C 1013.1 in /  34303.6 hPa West 18.5 mph /  29.8 km/h 18.5 mph /  29.8 km/h 86 % 0.3 in /  7.62 mm 0.0 W/m2
19:20 2.8 °F /  -16.2 °C 0.7 °F /  -17.4 °C 1013.1 in /  34303.6 hPa WNW 13.0 mph /  20.9 km/h 13.0 mph /  20.9 km/h 86 % 0.3 in /  7.62 mm 0.0 W/m2 CLR
19:25 2.8 °F /  -16.2 °C 0.5 °F /  -17.5 °C 1013.1 in /  34303.6 hPa West 5.6 mph /  9 km/h 5.6 mph /  9 km/h 85 % 0.3 in /  7.62 mm 0.0 W/m2 CLR
19:30 2.8 °F /  -16.2 °C 0.5 °F /  -17.5 °C 1013.1 in /  34303.6 hPa WNW 7.4 mph /  11.9 km/h 7.4 mph /  11.9 km/h 85 % 0.3 in /  7.62 mm 0.0 W/m2 CLR
19:35 2.8 °F /  -16.2 °C 0.5 °F /  -17.5 °C 1013.1 in /  34303.6 hPa WNW 13.0 mph /  20.9 km/h 13.0 mph /  20.9 km/h 85 % 0.3 in /  7.62 mm 0.0 W/m2 CLR
19:40 2.8 °F /  -16.2 °C 0.5 °F /  -17.5 °C 1013.1 in /  34303.6 hPa WNW 11.1 mph /  17.9 km/h 11.1 mph /  17.9 km/h 85 % 0.3 in /  7.62 mm 0.0 W/m2 CLR
19:45 2.8 °F /  -16.2 °C 0.5 °F /  -17.5 °C 1013.1 in /  34303.6 hPa WNW 6.4 mph /  10.3 km/h 6.4 mph /  10.3 km/h 85 % 0.3 in /  7.62 mm 0.0 W/m2 CLR
19:50 2.8 °F /  -16.2 °C 0.5 °F /  -17.5 °C 1013.4 in /  34313.7 hPa West 11.3 mph /  18.2 km/h 11.3 mph /  18.2 km/h 85 % 0.3 in /  7.62 mm 0.0 W/m2 CLR
19:55 2.8 °F /  -16.2 °C 0.5 °F /  -17.5 °C 1013.4 in /  34313.7 hPa WNW 7.4 mph /  11.9 km/h 7.4 mph /  11.9 km/h 85 % 0.3 in /  7.62 mm 0.0 W/m2 CLR
20:00 2.8 °F /  -16.2 °C 0.5 °F /  -17.5 °C 1013.4 in /  34313.7 hPa West 8.0 mph /  12.9 km/h 12.2 mph /  19.6 km/h 85 % 0.3 in /  7.62 mm 0.0 W/m2 CLR
20:05 2.8 °F /  -16.2 °C 0.3 °F /  -17.6 °C 1013.4 in /  34313.7 hPa NW 14.8 mph /  23.8 km/h 14.8 mph /  23.8 km/h 84 % 0.3 in /  7.62 mm 0.0 W/m2 CLR
20:10 2.8 °F /  -16.2 °C 0.3 °F /  -17.6 °C 1013.4 in /  34313.7 hPa West 11.1 mph /  17.9 km/h 11.1 mph /  17.9 km/h 84 % 0.0 in /  0 mm 0.0 W/m2 CLR
20:15 2.8 °F /  -16.2 °C 0.3 °F /  -17.6 °C 1013.4 in /  34313.7 hPa West 11.3 mph /  18.2 km/h 11.3 mph /  18.2 km/h 84 % 0.0 in /  0 mm 0.0 W/m2 CLR
20:20 2.8 °F /  -16.2 °C 0.3 °F /  -17.6 °C 1013.4 in /  34313.7 hPa West 12.9 mph /  20.8 km/h 12.9 mph /  20.8 km/h 84 % 0.0 in /  0 mm 0.0 W/m2 CLR
20:25 2.8 °F /  -16.2 °C 0.2 °F /  -17.7 °C 1013.8 in /  34327.3 hPa WSW 7.4 mph /  11.9 km/h 7.4 mph /  11.9 km/h 83 % 0.0 in /  0 mm 0.0 W/m2 CLR
20:30 2.8 °F /  -16.2 °C 0.2 °F /  -17.7 °C 1013.8 in /  34327.3 hPa WNW 18.5 mph /  29.8 km/h 18.5 mph /  29.8 km/h 83 % 0.0 in /  0 mm 0.0 W/m2 CLR
20:35 2.8 °F /  -16.2 °C 0.0 °F /  -17.8 °C 1013.8 in /  34327.3 hPa West 18.5 mph /  29.8 km/h 18.5 mph /  29.8 km/h 82 % 0.0 in /  0 mm 0.0 W/m2 CLR
20:40 2.8 °F /  -16.2 °C 0.0 °F /  -17.8 °C 1013.8 in /  34327.3 hPa NW 13.0 mph /  20.9 km/h 13.0 mph /  20.9 km/h 82 % 0.0 in /  0 mm 0.0 W/m2 CLR
20:45 2.8 °F /  -16.2 °C 0.0 °F /  -17.8 °C 1013.8 in /  34327.3 hPa WNW 13.0 mph /  20.9 km/h 13.0 mph /  20.9 km/h 82 % 0.0 in /  0 mm 0.0 W/m2 CLR
20:50 2.8 °F /  -16.2 °C -0.2 °F /  -17.9 °C 1013.8 in /  34327.3 hPa WNW 20.4 mph /  32.8 km/h 20.4 mph /  32.8 km/h 81 % 0.0 in /  0 mm 0.0 W/m2 CLR
20:55 2.8 °F /  -16.2 °C -0.3 °F /  -17.9 °C 1013.8 in /  34327.3 hPa WNW 27.8 mph /  44.7 km/h 27.8 mph /  44.7 km/h 80 % 0.0 in /  0 mm 0.0 W/m2 CLR
21:00 2.8 °F /  -16.2 °C -0.3 °F /  -17.9 °C 1013.8 in /  34327.3 hPa NW 16.7 mph /  26.9 km/h 16.7 mph /  26.9 km/h 80 % 0.0 in /  0 mm 0.0 W/m2 CLR
21:05 2.8 °F /  -16.2 °C -0.3 °F /  -17.9 °C 1013.8 in /  34327.3 hPa NW 24.1 mph /  38.8 km/h 24.1 mph /  38.8 km/h 80 % 0.0 in /  0 mm 0.0 W/m2 CLR
21:10 2.8 °F /  -16.2 °C -0.3 °F /  -17.9 °C 1014.1 in /  34337.4 hPa NW 20.4 mph /  32.8 km/h 20.4 mph /  32.8 km/h 80 % 0.0 in /  0 mm 0.0 W/m2 CLR
21:15 2.8 °F /  -16.2 °C -0.5 °F /  -18.1 °C 1014.1 in /  34337.4 hPa WNW 16.7 mph /  26.9 km/h 16.7 mph /  26.9 km/h 79 % 0.0 in /  0 mm 0.0 W/m2 CLR
21:20 2.8 °F /  -16.2 °C -0.5 °F /  -18.1 °C 1014.1 in /  34337.4 hPa WNW 22.5 mph /  36.2 km/h 22.5 mph /  36.2 km/h 79 % 0.0 in /  0 mm 0.0 W/m2 CLR
21:25 2.8 °F /  -16.2 °C -0.5 °F /  -18.1 °C 1014.1 in /  34337.4 hPa NW 18.5 mph /  29.8 km/h 18.5 mph /  29.8 km/h 79 % 0.0 in /  0 mm 0.0 W/m2 CLR
21:30 2.8 °F /  -16.2 °C -0.5 °F /  -18.1 °C 1014.1 in /  34337.4 hPa WNW 20.4 mph /  32.8 km/h 20.4 mph /  32.8 km/h 79 % 0.0 in /  0 mm 0.0 W/m2 CLR
21:35 2.8 °F /  -16.2 °C -0.7 °F /  -18.2 °C 1014.1 in /  34337.4 hPa WNW 24.1 mph /  38.8 km/h 24.1 mph /  38.8 km/h 78 % 0.0 in /  0 mm 0.0 W/m2 CLR
21:40 2.8 °F /  -16.2 °C -0.7 °F /  -18.2 °C 1014.1 in /  34337.4 hPa NW 18.5 mph /  29.8 km/h 18.5 mph /  29.8 km/h 78 % 0.0 in /  0 mm 0.0 W/m2 CLR
21:45 2.8 °F /  -16.2 °C -0.7 °F /  -18.2 °C 1014.1 in /  34337.4 hPa NW 29.6 mph /  47.6 km/h 29.6 mph /  47.6 km/h 78 % 0.0 in /  0 mm 0.0 W/m2 CLR
21:50 2.8 °F /  -16.2 °C -0.7 °F /  -18.2 °C 1014.1 in /  34337.4 hPa WNW 20.9 mph /  33.6 km/h 20.9 mph /  33.6 km/h 78 % 0.0 in /  0 mm 0.0 W/m2 CLR
21:55 2.8 °F /  -16.2 °C -0.5 °F /  -18.1 °C 1014.1 in /  34337.4 hPa NNW 24.1 mph /  38.8 km/h 24.1 mph /  38.8 km/h 79 % 0.0 in /  0 mm 0.0 W/m2 CLR
22:00 2.8 °F /  -16.2 °C -0.5 °F /  -18.1 °C 1014.1 in /  34337.4 hPa WNW 18.5 mph /  29.8 km/h 18.5 mph /  29.8 km/h 79 % 0.0 in /  0 mm 0.0 W/m2 CLR
22:05 2.8 °F /  -16.2 °C -0.5 °F /  -18.1 °C 1014.1 in /  34337.4 hPa NW 18.5 mph /  29.8 km/h 18.5 mph /  29.8 km/h 79 % 0.0 in /  0 mm 0.0 W/m2 CLR
22:10 2.8 °F /  -16.2 °C -0.5 °F /  -18.1 °C 1014.1 in /  34337.4 hPa NW 24.1 mph /  38.8 km/h 24.1 mph /  38.8 km/h 79 % 0.0 in /  0 mm 0.0 W/m2 CLR
22:15 2.8 °F /  -16.2 °C -0.5 °F /  -18.1 °C 1014.1 in /  34337.4 hPa WNW 18.5 mph /  29.8 km/h 18.5 mph /  29.8 km/h 79 % 0.0 in /  0 mm 0.0 W/m2 CLR
22:20 2.8 °F /  -16.2 °C -0.5 °F /  -18.1 °C 1014.1 in /  34337.4 hPa NW 18.5 mph /  29.8 km/h 18.5 mph /  29.8 km/h 79 % 0.0 in /  0 mm 0.0 W/m2 CLR
22:25 2.8 °F /  -16.2 °C -0.5 °F /  -18.1 °C 1014.1 in /  34337.4 hPa NW 16.1 mph /  25.9 km/h 16.1 mph /  25.9 km/h 79 % 0.0 in /  0 mm 0.0 W/m2 CLR
22:30 2.8 °F /  -16.2 °C -0.5 °F /  -18.1 °C 1014.4 in /  34347.6 hPa NW 22.2 mph /  35.7 km/h 22.2 mph /  35.7 km/h 79 % 0.0 in /  0 mm 0.0 W/m2 CLR
22:35 2.8 °F /  -16.2 °C -0.5 °F /  -18.1 °C 1014.1 in /  34337.4 hPa WNW 16.7 mph /  26.9 km/h 16.7 mph /  26.9 km/h 79 % 0.0 in /  0 mm 0.0 W/m2 CLR
22:40 2.8 °F /  -16.2 °C -0.5 °F /  -18.1 °C 1014.1 in /  34337.4 hPa NW 24.1 mph /  38.8 km/h 24.1 mph /  38.8 km/h 79 % 0.0 in /  0 mm 0.0 W/m2 CLR
22:45 2.8 °F /  -16.2 °C -0.5 °F /  -18.1 °C 1014.4 in /  34347.6 hPa WNW 14.5 mph /  23.3 km/h 14.5 mph /  23.3 km/h 79 % 0.0 in /  0 mm 0.0 W/m2 CLR
22:50 2.8 °F /  -16.2 °C -0.5 °F /  -18.1 °C 1014.4 in /  34347.6 hPa NW 24.1 mph /  38.8 km/h 24.1 mph /  38.8 km/h 79 % 0.0 in /  0 mm 0.0 W/m2 CLR
22:55 2.8 °F /  -16.2 °C -0.7 °F /  -18.2 °C 1014.4 in /  34347.6 hPa NW 24.1 mph /  38.8 km/h 24.1 mph /  38.8 km/h 78 % 0.0 in /  0 mm 0.0 W/m2 CLR
23:00 2.2 °F /  -16.6 °C -1.2 °F /  -18.4 °C 1014.4 in /  34347.6 hPa WNW 14.8 mph /  23.8 km/h 14.8 mph /  23.8 km/h 78 % 0.0 in /  0 mm 0.0 W/m2 CLR
23:05 2.2 °F /  -16.6 °C -1.2 °F /  -18.4 °C 1014.4 in /  34347.6 hPa WNW 19.3 mph /  31.1 km/h 19.3 mph /  31.1 km/h 78 % 0.0 in /  0 mm 0.0 W/m2 CLR
23:10 2.2 °F /  -16.6 °C -1.2 °F /  -18.4 °C 1014.4 in /  34347.6 hPa WNW 18.5 mph /  29.8 km/h 18.5 mph /  29.8 km/h 78 % 0.0 in /  0 mm 0.0 W/m2 CLR
23:15 2.2 °F /  -16.6 °C -1.2 °F /  -18.4 °C 1014.4 in /  34347.6 hPa NW 16.7 mph /  26.9 km/h 16.7 mph /  26.9 km/h 78 % 0.0 in /  0 mm 0.0 W/m2 CLR
23:20 2.2 °F /  -16.6 °C -1.2 °F /  -18.4 °C 1014.4 in /  34347.6 hPa West 18.5 mph /  29.8 km/h 18.5 mph /  29.8 km/h 78 % 0.0 in /  0 mm 0.0 W/m2 CLR
23:25 2.2 °F /  -16.6 °C -1.2 °F /  -18.4 °C 1014.4 in /  34347.6 hPa NW 18.5 mph /  29.8 km/h 18.5 mph /  29.8 km/h 78 % 0.0 in /  0 mm 0.0 W/m2 CLR
23:30 1.7 °F /  -16.8 °C -1.9 °F /  -18.8 °C 1014.4 in /  34347.6 hPa NW 22.2 mph /  35.7 km/h 22.2 mph /  35.7 km/h 77 % 0.0 in /  0 mm 0.0 W/m2 CLR
23:35 1.7 °F /  -16.8 °C -1.9 °F /  -18.8 °C 1014.4 in /  34347.6 hPa West 20.4 mph /  32.8 km/h 20.4 mph /  32.8 km/h 77 % 0.0 in /  0 mm 0.0 W/m2 CLR
23:40 1.7 °F /  -16.8 °C -2.1 °F /  -18.9 °C 1014.4 in /  34347.6 hPa NW 22.2 mph /  35.7 km/h 22.2 mph /  35.7 km/h 76 % 0.0 in /  0 mm 0.0 W/m2 CLR
23:45 1.7 °F /  -16.8 °C -2.1 °F /  -18.9 °C 1014.4 in /  34347.6 hPa WNW 20.4 mph /  32.8 km/h 20.4 mph /  32.8 km/h 76 % 0.0 in /  0 mm 0.0 W/m2 CLR
23:50 1.7 °F /  -16.8 °C -2.1 °F /  -18.9 °C 1014.4 in /  34347.6 hPa WNW 18.5 mph /  29.8 km/h 18.5 mph /  29.8 km/h 76 % 0.0 in /  0 mm 0.0 W/m2 CLR
23:55 1.7 °F /  -16.8 °C -2.1 °F /  -18.9 °C 1014.4 in /  34347.6 hPa West 11.1 mph /  17.9 km/h 11.1 mph /  17.9 km/h 76 % 0.0 in /  0 mm 0.0 W/m2 CLR
Lo Temps de Massalio
Compliments of Weather Underground - 1.25 mb